createdAt,value
2019-02-07T00:02:16.055Z,74.17
2019-02-07T00:04:47.730Z,70.10
2019-02-07T00:07:19.296Z,70.37
2019-02-07T00:09:50.999Z,76.03
2019-02-07T00:12:22.650Z,71.17
2019-02-07T00:14:54.289Z,68.63
2019-02-07T00:17:25.840Z,69.10
2019-02-07T00:19:57.645Z,71.23
2019-02-07T00:22:29.213Z,67.73
2019-02-07T00:25:01.010Z,65.57
2019-02-07T00:27:32.917Z,65.13
2019-02-07T00:30:05.249Z,59.57
2019-02-07T00:32:36.822Z,63.77
2019-02-07T00:35:09.250Z,61.83
2019-02-07T00:37:40.802Z,62.53
2019-02-07T00:40:14.617Z,61.93
2019-02-07T00:42:46.845Z,63.63
2019-02-07T00:45:18.426Z,64.47
2019-02-07T00:47:50.251Z,61.53
2019-02-07T00:50:21.938Z,61.50
2019-02-07T00:52:53.438Z,61.10
2019-02-07T00:55:25.870Z,62.03
2019-02-07T00:57:57.612Z,56.30
2019-02-07T01:00:29.275Z,55.13
2019-02-07T01:03:00.776Z,65.27
2019-02-07T01:05:32.466Z,63.43
2019-02-07T01:08:04.650Z,54.93
2019-02-07T01:10:53.943Z,59.23
2019-02-07T01:13:43.408Z,59.17
2019-02-07T01:16:14.930Z,62.20
2019-02-07T01:18:46.570Z,68.47
2019-02-07T01:21:18.269Z,64.10
2019-02-07T01:23:49.749Z,67.60
2019-02-07T01:26:21.788Z,67.67
2019-02-07T01:28:53.548Z,71.43
2019-02-07T01:31:25.322Z,67.33
2019-02-07T01:33:56.864Z,69.07
2019-02-07T01:36:28.617Z,69.17
2019-02-07T01:39:00.121Z,65.40
2019-02-07T01:41:31.837Z,70.17
2019-02-07T01:44:03.387Z,73.77
2019-02-07T01:46:34.854Z,63.43
2019-02-07T01:49:06.360Z,73.83
2019-02-07T01:51:38.132Z,66.47
2019-02-07T01:54:09.590Z,69.23
2019-02-07T01:56:41.115Z,77.27
2019-02-07T01:59:12.814Z,75.63
2019-02-07T02:01:44.398Z,75.70
2019-02-07T02:04:15.873Z,73.37
2019-02-07T02:06:47.674Z,80.20
2019-02-07T02:09:19.207Z,78.50
2019-02-07T02:11:50.783Z,74.47
2019-02-07T02:14:24.308Z,76.67
2019-02-07T02:16:55.901Z,71.90
2019-02-07T02:19:27.469Z,76.03
2019-02-07T02:21:59.101Z,74.47
2019-02-07T02:24:30.600Z,77.87
2019-02-07T02:27:02.158Z,73.43
2019-02-07T02:29:33.991Z,72.30
2019-02-07T02:32:05.778Z,79.87
2019-02-07T02:34:37.290Z,73.97
2019-02-07T02:37:08.984Z,78.00
2019-02-07T02:39:40.735Z,74.53
2019-02-07T02:42:12.443Z,72.33
2019-02-07T02:44:43.932Z,73.37
2019-02-07T02:47:15.613Z,83.37
2019-02-07T02:49:47.190Z,73.20
2019-02-07T02:52:18.733Z,74.07
2019-02-07T02:54:53.433Z,78.10
2019-02-07T02:57:27.843Z,76.23
2019-02-07T02:59:59.653Z,72.07
2019-02-07T03:02:51.560Z,72.57
2019-02-07T03:05:45.070Z,73.57
2019-02-07T03:08:34.197Z,74.00
2019-02-07T03:11:23.921Z,72.10
2019-02-07T03:14:13.449Z,74.17
2019-02-07T03:17:22.884Z,70.03
2019-02-07T03:20:13.388Z,70.80
2019-02-07T03:23:22.086Z,66.63
2019-02-07T03:26:12.724Z,62.50
2019-02-07T03:29:01.880Z,68.33
2019-02-07T03:31:51.265Z,67.00
2019-02-07T03:34:40.716Z,67.33
2019-02-07T03:37:22.193Z,67.00
2019-02-07T03:40:27.863Z,60.00
2019-02-07T03:43:18.371Z,61.43
2019-02-07T03:46:11.971Z,59.73
2019-02-07T03:48:59.586Z,53.73
2019-02-07T03:51:48.713Z,58.43
2019-02-07T03:54:37.678Z,58.33
2019-02-07T03:57:40.407Z,50.60
2019-02-07T04:00:38.462Z,58.60
2019-02-07T04:03:39.859Z,52.53
2019-02-07T04:06:39.499Z,52.70
2019-02-07T04:09:35.853Z,50.33
2019-02-07T04:12:29.733Z,48.87
2019-02-07T04:15:18.970Z,42.27
2019-02-07T04:18:17.117Z,46.43
2019-02-07T04:21:07.445Z,43.93
2019-02-07T04:23:48.481Z,47.90
2019-02-07T04:26:47.929Z,50.00
2019-02-07T04:29:44.719Z,38.60
2019-02-07T04:32:38.100Z,43.57
2019-02-07T04:35:37.669Z,44.50
2019-02-07T04:38:38.045Z,39.07
2019-02-07T04:41:31.492Z,43.10
2019-02-07T04:44:20.449Z,40.70
2019-02-07T04:47:09.735Z,41.83
2019-02-07T04:50:06.031Z,44.10
2019-02-07T04:53:05.273Z,43.70
2019-02-07T04:55:56.143Z,43.43
2019-02-07T04:58:36.990Z,46.50
2019-02-07T05:01:27.959Z,44.17
2019-02-07T05:04:27.664Z,44.17
2019-02-07T05:07:05.945Z,38.30
2019-02-07T05:09:59.145Z,39.00
2019-02-07T05:12:48.387Z,43.07
2019-02-07T05:15:39.026Z,41.73
2019-02-07T05:18:27.948Z,35.57
2019-02-07T05:21:18.570Z,48.17
2019-02-07T05:24:26.966Z,40.70
2019-02-07T05:27:20.662Z,43.70
2019-02-07T05:30:10.519Z,40.57
2019-02-07T05:32:58.239Z,48.37
2019-02-07T05:35:58.088Z,48.00
2019-02-07T05:38:48.665Z,58.90
2019-02-07T05:41:33.826Z,60.17
2019-02-07T05:44:14.651Z,76.13
2019-02-07T05:47:03.549Z,87.40
2019-02-07T05:50:09.401Z,87.87
2019-02-07T05:52:52.622Z,73.30
2019-02-07T05:55:42.266Z,65.47
2019-02-07T05:58:38.356Z,48.53
2019-02-07T06:01:17.645Z,53.80
2019-02-07T06:04:01.414Z,53.07
2019-02-07T06:06:55.033Z,61.17
2019-02-07T06:09:49.067Z,77.50
2019-02-07T06:12:38.390Z,68.93
2019-02-07T06:15:37.604Z,55.77
2019-02-07T06:18:24.498Z,45.67
2019-02-07T06:21:15.154Z,45.70
2019-02-07T06:24:11.644Z,42.30
2019-02-07T06:26:54.319Z,41.03
2019-02-07T06:29:43.636Z,37.73
2019-02-07T06:32:36.845Z,36.27
2019-02-07T06:35:33.282Z,40.73
2019-02-07T06:38:15.712Z,32.63
2019-02-07T06:41:05.026Z,41.87
2019-02-07T06:43:54.223Z,46.63
2019-02-07T06:46:38.223Z,36.07
2019-02-07T06:49:35.129Z,32.57
2019-02-07T06:52:31.526Z,34.77
2019-02-07T06:55:20.367Z,32.87
2019-02-07T06:58:11.211Z,35.83
2019-02-07T07:01:13.983Z,32.70
2019-02-07T07:04:04.669Z,29.97
2019-02-07T07:06:53.981Z,30.17
2019-02-07T07:09:43.220Z,31.03
2019-02-07T07:12:33.531Z,30.90
2019-02-07T07:15:15.503Z,34.30
2019-02-07T07:18:06.434Z,31.47
2019-02-07T07:20:51.739Z,29.90
2019-02-07T07:25:59.922Z,33.33
2019-02-07T07:28:59.501Z,32.10
2019-02-07T07:32:05.599Z,30.53
2019-02-07T07:35:05.123Z,31.30
2019-02-07T07:37:55.543Z,29.33
2019-02-07T07:41:04.094Z,29.07
2019-02-07T07:43:57.616Z,25.20
2019-02-07T07:46:47.933Z,32.13
2019-02-07T07:49:32.142Z,28.87
2019-02-07T07:52:25.463Z,27.87
2019-02-07T07:55:28.389Z,28.93
2019-02-07T07:58:21.729Z,23.57
2019-02-07T08:01:18.086Z,28.67
2019-02-07T08:04:08.546Z,27.03
2019-02-07T08:07:11.057Z,24.17
2019-02-07T08:10:04.344Z,29.00
2019-02-07T08:12:59.795Z,24.10
2019-02-07T08:15:49.021Z,30.27
2019-02-07T08:18:48.469Z,27.07
2019-02-07T08:21:37.629Z,29.03
2019-02-07T08:24:24.773Z,32.03
2019-02-07T08:27:21.330Z,28.10
2019-02-07T08:30:10.661Z,27.93
2019-02-07T08:33:07.024Z,32.17
2019-02-07T08:36:06.564Z,26.83
2019-02-07T08:38:55.463Z,28.03
2019-02-07T08:41:36.567Z,24.67
2019-02-07T08:44:39.105Z,27.57
2019-02-07T08:47:20.508Z,26.70
2019-02-07T08:50:29.425Z,29.80
2019-02-07T08:53:31.822Z,26.67
2019-02-07T08:56:14.757Z,27.60
2019-02-07T08:59:03.844Z,24.80
2019-02-07T09:01:44.191Z,27.10
2019-02-07T09:04:34.514Z,26.10
2019-02-07T09:07:15.974Z,24.37
2019-02-07T09:10:04.776Z,27.63
2019-02-07T09:12:55.248Z,25.70
2019-02-07T09:15:49.230Z,27.00
2019-02-07T09:18:38.568Z,22.40
2019-02-07T09:21:27.935Z,26.50
2019-02-07T09:24:16.864Z,26.10
2019-02-07T09:27:02.702Z,24.47
2019-02-07T09:29:59.370Z,27.90
2019-02-07T09:32:49.628Z,24.40
2019-02-07T09:35:39.447Z,27.87
2019-02-07T09:38:36.544Z,24.87
2019-02-07T09:41:36.879Z,27.57
2019-02-07T09:44:26.096Z,24.70
2019-02-07T09:47:20.814Z,25.07
2019-02-07T09:50:18.109Z,22.70
2019-02-07T09:53:23.418Z,24.10
2019-02-07T09:55:57.600Z,26.73
2019-02-07T09:58:47.713Z,19.43
2019-02-07T10:01:26.791Z,29.37
2019-02-07T10:04:17.120Z,23.73
2019-02-07T10:07:16.332Z,23.57
2019-02-07T10:10:16.166Z,28.70
2019-02-07T10:13:06.597Z,21.27
2019-02-07T10:15:54.783Z,21.63
2019-02-07T10:18:43.783Z,23.40
2019-02-07T10:21:24.126Z,23.90
2019-02-07T10:24:23.816Z,21.63
2019-02-07T10:27:23.335Z,21.97
2019-02-07T10:30:25.814Z,27.83
2019-02-07T10:33:15.294Z,24.30
2019-02-07T10:36:08.854Z,22.33
2019-02-07T10:39:05.075Z,24.63
2019-02-07T10:41:55.463Z,27.87
2019-02-07T10:44:44.702Z,23.10
2019-02-07T10:47:33.603Z,24.40
2019-02-07T10:50:37.430Z,22.17
2019-02-07T10:53:33.570Z,23.40
2019-02-07T10:56:15.853Z,24.53
2019-02-07T10:59:06.272Z,24.23
2019-02-07T11:01:55.934Z,24.53
2019-02-07T11:04:46.283Z,27.37
2019-02-07T11:07:36.698Z,24.83
2019-02-07T11:10:29.099Z,30.97
2019-02-07T11:13:19.992Z,25.70
2019-02-07T11:16:09.368Z,25.00
2019-02-07T11:19:00.387Z,24.30
2019-02-07T11:21:53.616Z,22.23
2019-02-07T11:24:48.042Z,24.63
2019-02-07T11:27:37.068Z,24.70
2019-02-07T11:30:31.574Z,26.33
2019-02-07T11:33:33.909Z,26.23
2019-02-07T11:36:35.296Z,20.70
2019-02-07T11:39:29.788Z,24.23
2019-02-07T11:42:38.844Z,23.77
2019-02-07T11:45:31.004Z,21.47
2019-02-07T11:48:15.849Z,25.27
2019-02-07T11:50:55.905Z,31.20
2019-02-07T11:53:45.472Z,28.57
2019-02-07T11:56:25.952Z,26.93
2019-02-07T11:59:19.401Z,24.53
2019-02-07T12:02:09.783Z,29.10
2019-02-07T12:05:00.990Z,23.97
2019-02-07T12:08:07.386Z,29.53
2019-02-07T12:11:04.115Z,26.67
2019-02-07T12:13:54.540Z,29.33
2019-02-07T12:16:43.982Z,26.50
2019-02-07T12:19:31.547Z,24.33
2019-02-07T12:22:37.335Z,24.90
2019-02-07T12:25:26.763Z,23.77
2019-02-07T12:28:17.461Z,25.27
2019-02-07T12:31:19.867Z,28.17
2019-02-07T12:34:07.163Z,30.17
2019-02-07T12:37:05.495Z,27.63
2019-02-07T12:39:59.205Z,23.93
2019-02-07T12:42:48.157Z,28.40
2019-02-07T12:45:51.056Z,21.67
2019-02-07T12:48:40.172Z,24.70
2019-02-07T12:51:30.613Z,27.17
2019-02-07T12:54:19.547Z,26.47
2019-02-07T12:57:09.058Z,26.53
2019-02-07T13:00:05.573Z,30.93
2019-02-07T13:02:46.215Z,25.03
2019-02-07T13:05:36.256Z,28.80
2019-02-07T13:08:26.795Z,26.70
2019-02-07T13:11:15.760Z,25.70
2019-02-07T13:14:15.233Z,24.37
2019-02-07T13:17:14.779Z,27.63
2019-02-07T13:19:55.735Z,25.30
2019-02-07T13:22:47.086Z,28.53
2019-02-07T13:25:36.340Z,28.70
2019-02-07T13:28:25.505Z,31.20
2019-02-07T13:31:20.919Z,25.20
2019-02-07T13:34:21.369Z,29.10
2019-02-07T13:37:08.764Z,30.33
2019-02-07T13:40:10.325Z,31.50
2019-02-07T13:43:12.642Z,32.93
2019-02-07T13:45:55.355Z,26.93
2019-02-07T13:48:58.069Z,27.67
2019-02-07T13:52:00.192Z,26.83
2019-02-07T13:54:49.413Z,26.47
2019-02-07T13:57:49.453Z,30.30
2019-02-07T14:00:45.029Z,26.20
2019-02-07T14:03:28.580Z,28.57
2019-02-07T14:06:13.286Z,28.00
2019-02-07T14:09:15.686Z,39.37
2019-02-07T14:12:18.647Z,48.77
2019-02-07T14:15:06.977Z,46.00
2019-02-07T14:17:58.211Z,50.23
2019-02-07T14:20:48.674Z,40.83
2019-02-07T14:23:37.909Z,32.77
2019-02-07T14:26:32.662Z,35.03
2019-02-07T14:29:21.888Z,35.93
2019-02-07T14:32:12.819Z,31.43
2019-02-07T14:35:00.976Z,33.97
2019-02-07T14:38:04.046Z,31.33
2019-02-07T14:40:57.405Z,36.90
2019-02-07T14:43:41.670Z,39.17
2019-02-07T14:46:32.528Z,35.77
2019-02-07T14:49:04.280Z,30.53
2019-02-07T14:51:35.753Z,30.47
2019-02-07T14:54:07.344Z,30.53
2019-02-07T14:56:38.936Z,30.83
2019-02-07T14:59:10.533Z,31.23
2019-02-07T15:01:42.070Z,30.73
2019-02-07T15:04:13.691Z,31.23
2019-02-07T15:06:45.161Z,29.03
2019-02-07T15:09:20.074Z,34.90
2019-02-07T15:11:51.885Z,34.13
2019-02-07T15:14:23.644Z,36.17
2019-02-07T15:16:55.142Z,38.70
2019-02-07T15:19:26.883Z,35.90
2019-02-07T15:21:58.403Z,32.70
2019-02-07T15:24:30.200Z,30.43
2019-02-07T15:27:01.837Z,30.23
2019-02-07T15:29:33.721Z,27.83
2019-02-07T15:32:05.530Z,27.43
2019-02-07T15:34:37.077Z,30.77
2019-02-07T15:37:08.559Z,30.50
2019-02-07T15:39:40.329Z,30.50
2019-02-07T15:42:12.363Z,29.93
2019-02-07T15:44:44.134Z,31.47
2019-02-07T15:47:15.666Z,33.27
2019-02-07T15:49:48.244Z,33.97
2019-02-07T15:52:19.754Z,35.67
2019-02-07T15:54:51.308Z,30.17
2019-02-07T15:57:23.162Z,32.60
2019-02-07T15:59:58.113Z,30.57
2019-02-07T16:02:39.306Z,30.17
2019-02-07T16:05:13.474Z,31.50
2019-02-07T16:07:45.090Z,32.57
2019-02-07T16:10:18.176Z,32.67
2019-02-07T16:12:50.140Z,33.17
2019-02-07T16:15:21.794Z,43.13
2019-02-07T16:17:53.504Z,46.30
2019-02-07T16:20:25.477Z,55.57
2019-02-07T16:22:58.980Z,53.63
2019-02-07T16:25:30.765Z,53.73
2019-02-07T16:28:02.555Z,50.00
2019-02-07T16:30:34.584Z,45.47
2019-02-07T16:33:06.617Z,45.50
2019-02-07T16:35:38.405Z,49.63
2019-02-07T16:38:09.993Z,47.57
2019-02-07T16:40:41.785Z,44.73
2019-02-07T16:43:13.847Z,43.93
2019-02-07T16:45:46.052Z,46.97
2019-02-07T16:48:17.661Z,40.37
2019-02-07T16:50:59.673Z,46.93
2019-02-07T16:53:22.717Z,46.77
2019-02-07T16:55:54.414Z,46.57
2019-02-07T16:58:26.584Z,48.17
2019-02-07T17:00:58.544Z,47.57
2019-02-07T17:03:30.201Z,55.57
2019-02-07T17:06:01.959Z,58.43
2019-02-07T17:08:33.518Z,49.37
2019-02-07T17:11:05.491Z,54.30
2019-02-07T17:13:36.997Z,55.37
2019-02-07T17:16:08.810Z,49.70
2019-02-07T17:18:40.365Z,53.03
2019-02-07T17:21:12.914Z,52.83
2019-02-07T17:23:44.755Z,44.63
2019-02-07T17:26:16.520Z,46.47
2019-02-07T17:28:48.626Z,45.47
2019-02-07T17:31:20.442Z,42.03
2019-02-07T17:33:51.941Z,43.10
2019-02-07T17:36:23.638Z,44.60
2019-02-07T17:38:55.332Z,40.53
2019-02-07T17:41:27.165Z,45.47
2019-02-07T17:43:59.386Z,44.17
2019-02-07T17:46:31.277Z,46.43
2019-02-07T17:49:03.375Z,42.73
2019-02-07T17:51:35.063Z,44.27
2019-02-07T17:54:06.756Z,39.77
2019-02-07T17:56:38.515Z,45.03
2019-02-07T17:59:10.095Z,42.83
2019-02-07T18:01:42.173Z,41.63
2019-02-07T18:04:13.929Z,36.90
2019-02-07T18:06:45.838Z,39.93
2019-02-07T18:09:17.461Z,36.13
2019-02-07T18:11:49.095Z,34.93
2019-02-07T18:14:21.263Z,40.73
2019-02-07T18:16:52.990Z,43.57
2019-02-07T18:19:24.586Z,45.77
2019-02-07T18:21:57.326Z,43.03
2019-02-07T18:24:29.351Z,43.97
2019-02-07T18:27:01.735Z,35.53
2019-02-07T18:29:33.770Z,35.37
2019-02-07T18:32:05.877Z,34.83
2019-02-07T18:34:37.514Z,39.50
2019-02-07T18:37:09.671Z,34.87
2019-02-07T18:39:41.314Z,36.40
2019-02-07T18:42:13.132Z,52.63
2019-02-07T18:44:44.919Z,59.23
2019-02-07T18:47:16.917Z,60.67
2019-02-07T18:49:48.552Z,47.87
2019-02-07T18:52:20.753Z,38.00
2019-02-07T18:54:52.408Z,44.97
2019-02-07T18:57:24.417Z,41.97
2019-02-07T18:59:56.705Z,39.97
2019-02-07T19:02:28.506Z,42.23
2019-02-07T19:05:00.414Z,44.70
2019-02-07T19:07:32.337Z,40.27
2019-02-07T19:10:04.582Z,43.27
2019-02-07T19:12:36.658Z,45.43
2019-02-07T19:15:13.476Z,45.30
2019-02-07T19:17:45.332Z,56.07
2019-02-07T19:20:19.009Z,55.13
2019-02-07T19:22:50.858Z,60.27
2019-02-07T19:25:22.602Z,63.20
2019-02-07T19:27:54.690Z,73.50
2019-02-07T19:30:31.196Z,66.47
2019-02-07T19:33:03.179Z,63.37
2019-02-07T19:35:34.759Z,51.83
2019-02-07T19:38:06.958Z,56.73
2019-02-07T19:40:39.036Z,55.37
2019-02-07T19:43:10.910Z,44.07
2019-02-07T19:45:42.658Z,47.50
2019-02-07T19:48:14.312Z,39.37
2019-02-07T19:50:46.189Z,44.37
2019-02-07T19:53:17.743Z,41.60
